Airfield :
LOGIN :

Register | Disclaimer

   EN    FR    IT 

 










Legend :    VFR   Marginal VFR   IFR   Intensive IFR   Very Intensive IFR
Visi :
Ceiling :
>= 8 km
>= 3000ft
5 to 8 km
1000 to 3000 ft
1500m to 5 km
500 to 1000 ft
800 to 1500m
200 to 500 ft
< 800m
< 200 ft
Symbols :   Thunderstorms  Fog  Heavy snow  Heavy precipitations  Wind > 20 kt
SIGMETs :     Misc.  Thunderstorms  Icing  Turbulence  Mountain Waves  Volcanic Ashes







- Airport Elevation : 1090 ft
- IATA code : CFE
- Download approach charts


LFLC - Clermont-Ferrand Auvergne

CURRENT METAR :
  • 211500Z AUTO VRB03KT 9999 BKN046 OVC060 21/15 Q1015 TEMPO 4000 -TSRA SCT018 BKN025CB

EXPIRED METARs :
  • 211430Z AUTO VRB02KT 9999 BKN045 BKN056 OVC066 20/14 Q1015 TEMPO 4000 -TSRA SCT018 BKN025CB
  • 211400Z AUTO VRB02KT 9999 BKN048 OVC060 20/14 Q1015 TEMPO 3000 -TSRA SCT015 BKN020CB
  • 211330Z AUTO VRB02KT 9999 SCT044 BKN052 OVC062 20/14 Q1015 TEMPO 3000 -TSRA SCT015 BKN020CB
  • 211300Z AUTO VRB02KT 9999 BKN043 OVC058 20/15 Q1016 TEMPO 3000 -TSRA SCT015 BKN020CB
  • 211230Z AUTO VRB03KT 9999 BKN040 OVC046 19/14 Q1016 TEMPO 3000 -TSRA SCT015 BKN020CB

TAF TAF LFLC
Valid from the 21 at 15:00 until the 22 at 15:00 UTC


211400Z 2115/2215 VRB04KT 9999 FEW036TCU BKN042
TEMPO 2115/2118 5000 SHRA BKN026TCU
PROB30
TEMPO 2115/2117 4000 -TSRA SCT018 BKN025CB
BECMG 2118/2120 SCT046
BECMG 2207/2209 SCT028
BECMG 2210/2212 36007KT SCT050
ATIS : +33 4 73 62 74 38
No reported NOTAMs for that airfield.



MET'MAP, your aeronautical weather chart ! - Copyright ORBIFLY December 2007 - Disclaimer

ORBIFLY MET'MAP TEAM :

Programming & Development : Alexandra Zaïnal
Concept & Development : Baudouin d'Aumeries
Co-Development & Prog : Marc-Olivier Méhu
Technical & hardware support : Manuel Goepfert

Contact : metmap@orbifly.com




SOURCES & CREDITS :

   NOAA